createdAt,value
2022-11-23T00:01:29.185Z,21.73
2022-11-23T00:03:58.587Z,21.83
2022-11-23T00:06:26.567Z,21.20
2022-11-23T00:08:54.586Z,21.23
2022-11-23T00:11:23.621Z,20.80
2022-11-23T00:13:51.085Z,20.10
2022-11-23T00:16:20.867Z,20.25
2022-11-23T00:18:48.155Z,21.98
2022-11-23T00:21:17.023Z,20.83
2022-11-23T00:23:45.313Z,20.42
2022-11-23T00:26:12.603Z,20.33
2022-11-23T00:28:40.741Z,21.42
2022-11-23T00:31:08.311Z,19.88
2022-11-23T00:33:35.808Z,22.50
2022-11-23T00:36:08.840Z,21.90
2022-11-23T00:38:35.776Z,20.02
2022-11-23T00:41:05.813Z,20.63
2022-11-23T00:43:33.935Z,21.10
2022-11-23T00:46:13.993Z,20.02
2022-11-23T00:48:41.298Z,21.95
2022-11-23T00:51:11.004Z,20.40
2022-11-23T00:53:38.358Z,21.50
2022-11-23T00:56:05.636Z,20.27
2022-11-23T00:58:32.575Z,20.00
2022-11-23T01:01:06.153Z,20.92
2022-11-23T01:03:33.364Z,20.15
2022-11-23T01:06:11.953Z,18.75
2022-11-23T01:08:39.308Z,18.98
2022-11-23T01:11:09.712Z,20.42
2022-11-23T01:13:38.166Z,16.80
2022-11-23T01:16:07.594Z,19.27
2022-11-23T01:18:34.397Z,20.02
2022-11-23T01:21:02.029Z,20.48
2022-11-23T01:23:30.280Z,19.80
2022-11-23T01:25:57.427Z,17.13
2022-11-23T01:28:24.541Z,18.08
2022-11-23T01:30:51.281Z,18.90
2022-11-23T01:33:18.137Z,17.88
2022-11-23T01:35:44.912Z,19.52
2022-11-23T01:38:17.842Z,20.00
2022-11-23T01:40:45.151Z,18.58
2022-11-23T01:43:17.768Z,21.33
2022-11-23T01:46:05.724Z,19.60
2022-11-23T01:48:36.728Z,16.25
2022-11-23T01:51:07.051Z,16.95
2022-11-23T01:53:34.196Z,19.00
2022-11-23T01:56:04.583Z,16.48
2022-11-23T01:58:37.320Z,17.08
2022-11-23T02:01:04.408Z,16.88
2022-11-23T02:03:32.610Z,19.23
2022-11-23T02:06:03.129Z,17.90
2022-11-23T02:08:30.807Z,15.25
2022-11-23T02:10:59.046Z,17.27
2022-11-23T02:13:29.017Z,17.35
2022-11-23T02:15:57.910Z,18.23
2022-11-23T02:18:28.600Z,16.17
2022-11-23T02:20:57.019Z,15.82
2022-11-23T02:23:53.864Z,16.92
2022-11-23T02:26:26.791Z,15.88
2022-11-23T02:28:58.412Z,16.77
2022-11-23T02:31:25.520Z,16.50
2022-11-23T02:33:52.288Z,16.80
2022-11-23T02:36:22.264Z,15.57
2022-11-23T02:38:49.148Z,15.68
2022-11-23T02:41:15.933Z,16.33
2022-11-23T02:43:43.197Z,15.73
2022-11-23T02:46:10.324Z,17.38
2022-11-23T02:48:37.077Z,15.68
2022-11-23T02:51:03.874Z,17.02
2022-11-23T02:53:30.651Z,15.93
2022-11-23T02:55:57.470Z,16.10
2022-11-23T02:58:24.310Z,15.20
2022-11-23T03:00:51.164Z,14.80
2022-11-23T03:03:18.079Z,16.08
2022-11-23T03:05:44.855Z,14.55
2022-11-23T03:08:11.714Z,14.85
2022-11-23T03:10:38.524Z,14.43
2022-11-23T03:13:05.287Z,15.32
2022-11-23T03:15:33.067Z,14.90
2022-11-23T03:17:59.889Z,16.42
2022-11-23T03:20:26.796Z,13.65
2022-11-23T03:22:54.005Z,14.60
2022-11-23T03:25:20.783Z,15.05
2022-11-23T03:27:47.644Z,14.85
2022-11-23T03:30:14.972Z,13.38
2022-11-23T03:32:41.812Z,11.95
2022-11-23T03:35:09.028Z,12.75
2022-11-23T03:37:35.832Z,12.95
2022-11-23T03:40:02.666Z,13.05
2022-11-23T03:42:29.508Z,13.70
2022-11-23T03:44:56.305Z,12.80
2022-11-23T03:47:23.100Z,12.32
2022-11-23T03:49:49.912Z,13.20
2022-11-23T03:52:16.847Z,12.07
2022-11-23T03:54:43.610Z,13.55
2022-11-23T03:57:10.394Z,13.18
2022-11-23T03:59:37.143Z,12.63
2022-11-23T04:02:04.058Z,13.45
2022-11-23T04:04:30.831Z,11.55
2022-11-23T04:06:57.574Z,11.68
2022-11-23T04:09:24.466Z,11.60
2022-11-23T04:11:51.554Z,12.35
2022-11-23T04:14:18.409Z,12.65
2022-11-23T04:16:45.255Z,12.57
2022-11-23T04:19:12.071Z,12.60
2022-11-23T04:21:38.882Z,11.15
2022-11-23T04:24:05.995Z,11.93
2022-11-23T04:26:32.910Z,14.23
2022-11-23T04:28:59.668Z,11.60
2022-11-23T04:31:26.415Z,12.65
2022-11-23T04:33:55.916Z,13.02
2022-11-23T04:36:22.789Z,11.73
2022-11-23T04:38:49.706Z,11.50
2022-11-23T04:41:16.706Z,10.95
2022-11-23T04:43:43.493Z,11.38
2022-11-23T04:46:12.093Z,11.07
2022-11-23T04:48:38.894Z,9.65
2022-11-23T04:51:05.922Z,12.05
2022-11-23T04:53:32.762Z,10.55
2022-11-23T04:55:59.554Z,10.93
2022-11-23T04:58:27.887Z,10.45
2022-11-23T05:00:59.208Z,9.82
2022-11-23T05:03:27.169Z,10.18
2022-11-23T05:05:54.011Z,10.55
2022-11-23T05:08:20.799Z,11.00
2022-11-23T05:10:47.647Z,9.98
2022-11-23T05:13:14.872Z,10.30
2022-11-23T05:15:41.720Z,11.43
2022-11-23T05:18:08.600Z,9.82
2022-11-23T05:20:35.405Z,11.57
2022-11-23T05:23:02.389Z,10.90
2022-11-23T05:25:29.182Z,10.85
2022-11-23T05:27:56.022Z,10.48
2022-11-23T05:30:23.338Z,10.85
2022-11-23T05:32:50.294Z,10.25
2022-11-23T05:35:17.240Z,10.63
2022-11-23T05:37:44.029Z,10.73
2022-11-23T05:40:11.947Z,10.43
2022-11-23T05:42:38.724Z,10.65
2022-11-23T05:45:11.141Z,10.73
2022-11-23T05:47:38.456Z,9.77
2022-11-23T05:50:05.810Z,8.80
2022-11-23T05:52:32.734Z,9.43
2022-11-23T05:54:59.496Z,9.30
2022-11-23T05:57:26.349Z,10.27
2022-11-23T05:59:53.156Z,9.00
2022-11-23T06:02:19.913Z,9.60
2022-11-23T06:04:46.764Z,9.40
2022-11-23T06:07:13.672Z,8.35
2022-11-23T06:09:40.565Z,9.50
2022-11-23T06:12:07.534Z,9.00
2022-11-23T06:14:34.322Z,9.90
2022-11-23T06:17:01.117Z,10.65
2022-11-23T06:19:30.506Z,10.90
2022-11-23T06:21:58.083Z,9.07
2022-11-23T06:24:25.330Z,10.25
2022-11-23T06:26:52.694Z,10.55
2022-11-23T06:29:22.824Z,8.88
2022-11-23T06:31:49.633Z,11.52
2022-11-23T06:34:16.525Z,10.65
2022-11-23T06:36:43.460Z,11.13
2022-11-23T06:39:10.407Z,10.55
2022-11-23T06:41:37.243Z,10.50
2022-11-23T06:44:04.172Z,9.65
2022-11-23T06:46:31.110Z,9.80
2022-11-23T06:48:57.930Z,10.10
2022-11-23T06:51:25.042Z,10.52
2022-11-23T06:53:51.814Z,9.07
2022-11-23T06:56:18.662Z,11.27
2022-11-23T06:58:45.512Z,9.45
2022-11-23T07:01:12.643Z,10.98
2022-11-23T07:03:39.698Z,8.55
2022-11-23T07:06:07.904Z,8.18
2022-11-23T07:08:36.344Z,8.85
2022-11-23T07:11:05.624Z,10.10
2022-11-23T07:13:33.150Z,9.25
2022-11-23T07:15:59.996Z,8.60
2022-11-23T07:18:27.021Z,7.80
2022-11-23T07:20:54.009Z,8.90
2022-11-23T07:23:20.801Z,8.30
2022-11-23T07:25:47.633Z,9.10
2022-11-23T07:28:14.523Z,8.20
2022-11-23T07:30:41.768Z,9.15
2022-11-23T07:33:10.789Z,9.45
2022-11-23T07:35:39.569Z,8.85
2022-11-23T07:38:08.506Z,8.45
2022-11-23T07:40:39.129Z,8.73
2022-11-23T07:43:06.919Z,8.88
2022-11-23T07:45:34.644Z,9.02
2022-11-23T07:48:04.799Z,8.25
2022-11-23T07:50:32.456Z,9.10
2022-11-23T07:53:01.290Z,8.52
2022-11-23T07:55:28.609Z,8.70
2022-11-23T07:57:55.637Z,8.38
2022-11-23T08:00:23.732Z,8.50
2022-11-23T08:03:11.792Z,9.00
2022-11-23T08:05:37.383Z,8.00
2022-11-23T08:08:04.319Z,7.53
2022-11-23T08:10:32.156Z,7.40
2022-11-23T08:13:00.443Z,7.88
2022-11-23T08:15:30.898Z,8.60
2022-11-23T08:18:02.509Z,7.50
2022-11-23T08:20:30.522Z,8.75
2022-11-23T08:22:57.649Z,8.68
2022-11-23T08:25:26.102Z,8.52
2022-11-23T08:28:03.734Z,7.40
2022-11-23T08:30:32.466Z,8.40
2022-11-23T08:32:59.777Z,7.57
2022-11-23T08:35:26.569Z,9.10
2022-11-23T08:37:53.415Z,8.30
2022-11-23T08:40:24.967Z,8.38
2022-11-23T08:42:52.386Z,8.70
2022-11-23T08:45:19.253Z,8.88
2022-11-23T08:47:46.092Z,8.70
2022-11-23T08:50:13.461Z,9.45
2022-11-23T08:52:40.341Z,7.75
2022-11-23T08:55:07.417Z,9.20
2022-11-23T08:57:34.431Z,9.32
2022-11-23T09:00:01.321Z,9.57
2022-11-23T09:02:28.143Z,8.23
2022-11-23T09:04:54.992Z,7.85
2022-11-23T09:07:21.794Z,8.38
2022-11-23T09:09:48.647Z,8.20
2022-11-23T09:12:15.467Z,8.25
2022-11-23T09:14:42.385Z,9.45
2022-11-23T09:17:09.194Z,8.90
2022-11-23T09:19:35.955Z,8.10
2022-11-23T09:22:02.786Z,6.72
2022-11-23T09:24:29.799Z,8.15
2022-11-23T09:26:58.421Z,7.15
2022-11-23T09:29:25.588Z,8.18
2022-11-23T09:31:52.938Z,7.80
2022-11-23T09:34:20.081Z,6.63
2022-11-23T09:36:47.586Z,7.70
2022-11-23T09:39:14.575Z,7.32
2022-11-23T09:42:05.029Z,6.10
2022-11-23T09:44:34.813Z,7.35
2022-11-23T09:47:27.656Z,7.85
2022-11-23T09:50:06.338Z,6.72
2022-11-23T09:52:35.450Z,7.50
2022-11-23T09:55:11.671Z,7.82
2022-11-23T09:57:40.875Z,7.28
2022-11-23T10:00:19.908Z,6.95
2022-11-23T10:02:47.394Z,6.93
2022-11-23T10:05:26.168Z,7.45
2022-11-23T10:08:20.666Z,7.25
2022-11-23T10:11:01.679Z,6.82
2022-11-23T10:13:43.200Z,7.00
2022-11-23T10:16:13.003Z,7.57
2022-11-23T10:19:10.387Z,6.90
2022-11-23T10:21:56.735Z,7.28
2022-11-23T10:24:33.916Z,7.38
2022-11-23T10:27:02.701Z,7.68
2022-11-23T10:29:37.183Z,8.00
2022-11-23T10:32:13.808Z,8.07
2022-11-23T10:35:14.088Z,8.20
2022-11-23T10:37:41.193Z,7.53
2022-11-23T10:40:19.900Z,8.20
2022-11-23T10:42:53.824Z,8.35
2022-11-23T10:45:26.219Z,8.38
2022-11-23T10:47:55.217Z,8.30
2022-11-23T10:50:25.993Z,8.50
2022-11-23T10:52:59.366Z,9.10
2022-11-23T10:55:29.983Z,8.00
2022-11-23T10:57:57.890Z,8.18
2022-11-23T11:00:30.522Z,9.10
2022-11-23T11:02:59.536Z,7.68
2022-11-23T11:08:48.388Z,8.95
2022-11-23T11:11:30.507Z,9.68
2022-11-23T11:14:20.676Z,9.50
2022-11-23T11:16:58.422Z,9.63
2022-11-23T11:19:25.226Z,10.13
2022-11-23T11:21:52.036Z,8.82
2022-11-23T11:24:23.344Z,9.90
2022-11-23T11:27:03.699Z,8.43
2022-11-23T11:29:39.095Z,8.40
2022-11-23T11:32:16.293Z,8.93
2022-11-23T11:34:53.819Z,8.38
2022-11-23T11:37:44.854Z,9.75
2022-11-23T11:40:20.530Z,10.35
2022-11-23T11:43:07.605Z,10.60
2022-11-23T11:46:13.187Z,12.27
2022-11-23T11:49:04.986Z,9.98
2022-11-23T11:51:41.365Z,9.90
2022-11-23T11:54:11.242Z,12.38
2022-11-23T11:56:46.617Z,10.40
2022-11-23T11:59:31.476Z,9.48
2022-11-23T12:02:21.929Z,11.82
2022-11-23T12:04:58.193Z,11.43
2022-11-23T12:07:41.318Z,10.57
2022-11-23T12:10:53.311Z,11.10
2022-11-23T12:13:22.897Z,9.57
2022-11-23T12:16:15.453Z,10.88
2022-11-23T12:19:10.906Z,12.32
2022-11-23T12:22:08.266Z,10.35
2022-11-23T12:24:41.056Z,10.20
2022-11-23T12:27:31.342Z,11.27
2022-11-23T12:29:59.717Z,11.73
2022-11-23T12:33:12.535Z,12.77
2022-11-23T12:36:29.772Z,13.27
2022-11-23T12:39:15.140Z,11.80
2022-11-23T12:42:05.353Z,13.40
2022-11-23T12:44:41.320Z,13.02
2022-11-23T12:47:40.297Z,14.50
2022-11-23T12:50:35.528Z,14.75
2022-11-23T12:53:27.179Z,12.65
2022-11-23T12:59:19.753Z,12.20
2022-11-23T13:01:54.232Z,12.52
2022-11-23T13:14:11.150Z,12.85
2022-11-23T13:16:59.242Z,15.02
2022-11-23T13:19:56.848Z,15.43
2022-11-23T13:27:49.190Z,14.35
2022-11-23T13:33:23.704Z,13.23
2022-11-23T13:36:02.305Z,13.25
2022-11-23T13:38:39.268Z,14.02
2022-11-23T13:41:33.881Z,15.05
2022-11-23T13:44:18.791Z,15.60
2022-11-23T13:47:01.942Z,17.05
2022-11-23T13:49:34.702Z,17.38
2022-11-23T13:52:21.315Z,16.95
2022-11-23T13:55:09.856Z,15.77
2022-11-23T13:57:42.179Z,16.15
2022-11-23T14:00:51.707Z,16.45
2022-11-23T14:03:52.141Z,16.73
2022-11-23T14:06:21.834Z,17.20
2022-11-23T14:08:53.581Z,16.65
2022-11-23T14:11:23.214Z,14.20
2022-11-23T14:14:03.448Z,14.05
2022-11-23T14:17:09.242Z,15.93
2022-11-23T14:20:04.083Z,17.13
2022-11-23T14:22:59.083Z,17.33
2022-11-23T14:25:28.637Z,16.70
2022-11-23T14:28:01.072Z,16.42
2022-11-23T14:31:04.422Z,15.60
2022-11-23T14:33:42.740Z,16.30
2022-11-23T14:36:18.550Z,16.35
2022-11-23T14:38:53.948Z,18.95
2022-11-23T14:41:23.676Z,17.58
2022-11-23T14:43:51.224Z,16.65
2022-11-23T14:46:21.384Z,16.02
2022-11-23T14:48:49.620Z,17.10
2022-11-23T14:51:28.233Z,17.83
2022-11-23T14:54:01.479Z,17.20
2022-11-23T14:56:35.703Z,15.82
2022-11-23T14:59:28.982Z,16.92
2022-11-23T15:02:05.726Z,15.07
2022-11-23T15:04:37.179Z,16.90
2022-11-23T15:07:13.329Z,17.67
2022-11-23T15:10:06.394Z,16.27
2022-11-23T15:12:48.429Z,16.83
2022-11-23T15:15:22.352Z,15.50
2022-11-23T15:18:02.665Z,16.33
2022-11-23T15:20:49.710Z,15.77
2022-11-23T15:23:23.306Z,14.52
2022-11-23T15:25:55.174Z,17.02
2022-11-23T15:28:27.348Z,17.60
2022-11-23T15:30:58.290Z,17.48
2022-11-23T15:33:26.260Z,15.80
2022-11-23T15:35:54.855Z,16.00
2022-11-23T15:38:23.785Z,17.08
2022-11-23T15:40:51.304Z,15.52
2022-11-23T15:43:19.946Z,16.75
2022-11-23T15:45:46.820Z,15.95
2022-11-23T15:48:16.216Z,14.25
2022-11-23T15:50:51.558Z,16.45
2022-11-23T15:53:20.833Z,17.95
2022-11-23T15:55:49.867Z,16.67
2022-11-23T15:58:21.334Z,16.45
2022-11-23T16:00:56.299Z,16.85
2022-11-23T16:03:26.180Z,18.25
2022-11-23T16:06:11.379Z,17.33
2022-11-23T16:08:41.047Z,19.10
2022-11-23T16:11:30.332Z,16.20
2022-11-23T16:14:13.623Z,17.20
2022-11-23T16:16:45.540Z,17.38
2022-11-23T16:19:31.644Z,18.17
2022-11-23T16:22:03.306Z,16.38
2022-11-23T16:24:32.539Z,18.17
2022-11-23T16:27:00.327Z,17.15
2022-11-23T16:29:34.455Z,16.02
2022-11-23T16:32:02.985Z,14.82
2022-11-23T16:34:30.295Z,15.55
2022-11-23T16:36:59.200Z,16.85
2022-11-23T16:39:27.608Z,17.27
2022-11-23T16:41:54.682Z,16.75
2022-11-23T16:44:21.844Z,16.27
2022-11-23T16:46:48.852Z,16.27
2022-11-23T16:49:23.830Z,14.88
2022-11-23T16:51:57.011Z,15.90
2022-11-23T16:54:25.274Z,16.02
2022-11-23T16:56:52.828Z,15.13
2022-11-23T16:59:20.234Z,13.00
2022-11-23T17:01:53.925Z,14.48
2022-11-23T17:04:24.160Z,14.18
2022-11-23T17:06:51.023Z,14.27
2022-11-23T17:09:17.894Z,12.75
2022-11-23T17:11:47.644Z,13.48
2022-11-23T17:14:18.895Z,14.55
2022-11-23T17:16:47.167Z,13.13
2022-11-23T17:19:18.920Z,14.35
2022-11-23T17:21:45.967Z,14.43
2022-11-23T17:24:14.026Z,14.77
2022-11-23T17:26:44.379Z,16.60
2022-11-23T17:29:14.780Z,17.38
2022-11-23T17:31:43.619Z,17.13
2022-11-23T17:34:10.574Z,16.83
2022-11-23T17:36:37.718Z,15.20
2022-11-23T17:39:04.840Z,16.48
2022-11-23T17:41:31.916Z,17.25
2022-11-23T17:43:59.982Z,18.50
2022-11-23T17:46:31.528Z,16.85
2022-11-23T17:48:59.098Z,17.08
2022-11-23T17:51:26.127Z,18.50
2022-11-23T17:53:52.925Z,17.05
2022-11-23T17:56:22.735Z,17.73
2022-11-23T17:58:50.451Z,18.92
2022-11-23T18:01:19.280Z,17.15
2022-11-23T18:03:46.493Z,17.00
2022-11-23T18:06:19.852Z,17.50
2022-11-23T18:08:47.731Z,17.92
2022-11-23T18:11:15.562Z,17.92
2022-11-23T18:13:43.199Z,16.80
2022-11-23T18:16:10.966Z,16.15
2022-11-23T18:18:38.261Z,15.52
2022-11-23T18:21:05.769Z,17.70
2022-11-23T18:23:33.254Z,17.08
2022-11-23T18:25:59.968Z,17.40
2022-11-23T18:28:27.454Z,17.30
2022-11-23T18:30:55.092Z,18.08
2022-11-23T18:33:22.848Z,17.67
2022-11-23T18:35:50.344Z,17.50
2022-11-23T18:38:17.218Z,17.73
2022-11-23T18:40:44.043Z,16.85
2022-11-23T18:43:10.834Z,17.20
2022-11-23T18:45:37.783Z,17.23
2022-11-23T18:48:05.217Z,18.00
2022-11-23T18:50:32.008Z,18.15
2022-11-23T18:52:58.884Z,16.25
2022-11-23T18:55:25.687Z,17.10
2022-11-23T18:57:55.794Z,16.52
2022-11-23T19:00:22.933Z,16.00
2022-11-23T19:03:00.474Z,16.75
2022-11-23T19:05:30.647Z,15.95
2022-11-23T19:08:09.888Z,16.98
2022-11-23T19:10:38.458Z,16.83
2022-11-23T19:13:06.203Z,16.52
2022-11-23T19:15:33.594Z,17.40
2022-11-23T19:18:01.013Z,16.00
2022-11-23T19:20:29.000Z,17.70
2022-11-23T19:22:56.029Z,18.90
2022-11-23T19:25:23.128Z,17.50
2022-11-23T19:27:51.464Z,16.80
2022-11-23T19:30:18.789Z,17.30
2022-11-23T19:32:45.633Z,19.00
2022-11-23T19:35:12.592Z,18.15
2022-11-23T19:37:39.590Z,19.55
2022-11-23T19:40:07.480Z,20.15
2022-11-23T19:42:35.736Z,17.05
2022-11-23T19:45:03.709Z,17.05
2022-11-23T19:47:31.578Z,17.38
2022-11-23T19:49:59.267Z,16.95
2022-11-23T19:52:48.007Z,17.70
2022-11-23T19:55:16.044Z,15.98
2022-11-23T19:57:43.064Z,17.15
2022-11-23T20:00:10.486Z,16.42
2022-11-23T20:02:37.261Z,18.20
2022-11-23T20:05:04.310Z,16.42
2022-11-23T20:07:31.731Z,15.43
2022-11-23T20:09:58.561Z,15.88
2022-11-23T20:12:25.363Z,16.23
2022-11-23T20:14:52.197Z,16.73
2022-11-23T20:17:19.051Z,16.30
2022-11-23T20:19:45.829Z,16.35
2022-11-23T20:22:13.091Z,16.73
2022-11-23T20:24:39.906Z,17.75
2022-11-23T20:27:06.676Z,18.10
2022-11-23T20:29:33.810Z,17.75
2022-11-23T20:32:00.848Z,17.45
2022-11-23T20:34:27.818Z,18.05
2022-11-23T20:36:54.663Z,16.65
2022-11-23T20:39:21.655Z,19.20
2022-11-23T20:41:49.891Z,17.35
2022-11-23T20:44:16.873Z,17.20
2022-11-23T20:49:31.580Z,19.55
2022-11-23T20:51:58.981Z,18.17
2022-11-23T20:54:25.764Z,17.30
2022-11-23T20:56:52.565Z,16.58
2022-11-23T20:59:20.297Z,16.73
2022-11-23T21:01:47.125Z,18.23
2022-11-23T21:04:14.010Z,17.92
2022-11-23T21:06:40.878Z,16.38
2022-11-23T21:09:09.686Z,18.45
2022-11-23T21:11:55.330Z,16.17
2022-11-23T21:14:24.675Z,16.27
2022-11-23T21:16:58.375Z,18.15
2022-11-23T21:19:33.805Z,18.15
2022-11-23T21:22:19.006Z,16.90
2022-11-23T21:24:45.830Z,16.70
2022-11-23T21:27:13.483Z,18.65
2022-11-23T21:29:40.598Z,17.65
2022-11-23T21:32:07.407Z,17.45
2022-11-23T21:34:34.579Z,16.85
2022-11-23T21:37:01.709Z,16.10
2022-11-23T21:39:31.356Z,17.20
2022-11-23T21:41:58.196Z,15.68
2022-11-23T21:44:25.022Z,15.65
2022-11-23T21:46:52.148Z,15.98
2022-11-23T21:49:19.006Z,15.40
2022-11-23T21:51:46.016Z,15.02
2022-11-23T21:54:16.447Z,14.65
2022-11-23T21:56:44.781Z,15.82
2022-11-23T21:59:12.427Z,15.73
2022-11-23T22:07:08.536Z,15.00
2022-11-23T22:09:35.632Z,16.02
2022-11-23T22:12:02.602Z,16.38
2022-11-23T22:14:29.650Z,17.73
2022-11-23T22:16:57.511Z,14.60
2022-11-23T22:19:24.502Z,14.70
2022-11-23T22:21:51.477Z,15.07
2022-11-23T22:24:19.752Z,14.23
2022-11-23T22:26:48.024Z,14.95
2022-11-23T22:29:15.990Z,13.65
2022-11-23T22:31:44.002Z,15.43
2022-11-23T22:34:13.331Z,13.15
2022-11-23T22:36:40.905Z,13.73
2022-11-23T22:39:08.641Z,13.30
2022-11-23T22:41:39.420Z,15.05
2022-11-23T22:44:08.946Z,15.18
2022-11-23T22:46:37.430Z,15.68
2022-11-23T22:49:04.694Z,14.63
2022-11-23T22:51:31.751Z,13.93
2022-11-23T22:54:00.591Z,14.05
2022-11-23T22:56:29.572Z,13.63
2022-11-23T22:58:56.889Z,13.65
2022-11-23T23:01:29.437Z,14.60
2022-11-23T23:03:59.111Z,15.18
2022-11-23T23:06:28.667Z,14.02
2022-11-23T23:08:58.081Z,15.35
2022-11-23T23:11:26.834Z,17.48
2022-11-23T23:13:54.683Z,15.50
2022-11-23T23:16:22.338Z,15.63
2022-11-23T23:18:49.741Z,14.45
2022-11-23T23:21:19.242Z,14.82
2022-11-23T23:23:48.540Z,13.95
2022-11-23T23:26:17.461Z,13.30
2022-11-23T23:28:44.881Z,14.75
2022-11-23T23:31:14.215Z,14.52
2022-11-23T23:33:41.797Z,13.68
2022-11-23T23:36:10.584Z,15.38
2022-11-23T23:38:38.208Z,14.43
2022-11-23T23:41:06.877Z,14.07
2022-11-23T23:43:34.289Z,14.00
2022-11-23T23:46:03.311Z,15.57
2022-11-23T23:48:32.525Z,13.20
2022-11-23T23:51:04.872Z,13.15
2022-11-23T23:53:34.222Z,14.57
2022-11-23T23:56:03.663Z,13.27
2022-11-23T23:58:31.566Z,14.05
